Time;durP1;ratioP1;P1;durP2;ratioP2;P2;SDS_P1;SDS_P2;PMS_P1;PMS_P2;Temp;Humidity;BMP_temperature;BMP_pressure;BME280_temperature;BME280_humidity;BME280_pressure;Samples;Min_cycle;Max_cycle;Signal;HPM_P1;HPM_P2
2022/05/09 00:00:25;;;;;;;0.82;0.82;;;12.60;69.10;;;;;;5005960;28;20195;-72
2022/05/09 00:02:50;;;;;;;0.70;0.70;;;12.50;69.20;;;;;;5007692;28;20224;-72
2022/05/09 00:05:19;;;;;;;0.75;0.68;;;12.50;68.60;;;;;;5006025;28;20188;-71
2022/05/09 00:07:45;;;;;;;0.88;0.85;;;12.50;68.60;;;;;;5011625;28;20263;-72
2022/05/09 00:10:13;;;;;;;2.40;0.68;;;12.50;69.10;;;;;;5015289;28;20226;-72
2022/05/09 00:12:39;;;;;;;0.95;0.95;;;12.50;69.30;;;;;;5010553;28;20180;-72
2022/05/09 00:15:06;;;;;;;2.03;0.98;;;12.50;69.30;;;;;;5007804;28;20169;-71
2022/05/09 00:17:32;;;;;;;3.00;0.82;;;12.40;68.70;;;;;;5014832;28;20251;-73
2022/05/09 00:19:59;;;;;;;1.02;0.85;;;12.40;69.20;;;;;;5009846;28;20683;-73
2022/05/09 00:22:26;;;;;;;2.05;1.02;;;12.40;69.90;;;;;;5009584;28;20191;-71
2022/05/09 00:24:51;;;;;;;1.60;1.50;;;12.40;70.00;;;;;;5011265;28;20206;-71
2022/05/09 00:27:17;;;;;;;3.15;1.05;;;12.40;69.90;;;;;;5014889;28;20186;-71
2022/05/09 00:29:43;;;;;;;2.00;1.23;;;12.30;70.80;;;;;;5015658;28;20219;-72
2022/05/09 00:32:09;;;;;;;1.20;1.20;;;12.30;70.40;;;;;;5012818;28;20184;-71
2022/05/09 00:34:38;;;;;;;1.30;1.20;;;;;;;;;;5009826;28;20177;-73
2022/05/09 00:37:04;;;;;;;1.08;1.08;;;12.20;70.20;;;;;;5010260;28;20185;-71
2022/05/09 00:39:32;;;;;;;1.70;1.55;;;12.20;70.30;;;;;;5018073;28;20236;-72
2022/05/09 00:42:13;;;;;;;4.65;1.63;;;12.20;70.10;;;;;;5006496;28;20181;-73
2022/05/09 00:44:39;;;;;;;1.10;1.10;;;12.10;70.90;;;;;;5010616;28;20180;-73
2022/05/09 00:47:05;;;;;;;6.88;1.40;;;12.10;70.90;;;;;;5008106;28;20188;-72
2022/05/09 00:49:47;;;;;;;2.30;1.38;;;12.00;71.00;;;;;;5011953;28;20216;-73
2022/05/09 00:52:36;;;;;;;1.40;1.30;;;12.00;71.20;;;;;;5013881;28;21136;-73
2022/05/09 00:55:17;;;;;;;5.28;2.03;;;12.00;71.40;;;;;;5015664;28;20184;-72
2022/05/09 00:57:56;;;;;;;2.10;1.10;;;12.00;71.60;;;;;;5007866;28;20195;-73
2022/05/09 01:00:24;;;;;;;1.38;1.10;;;11.90;71.80;;;;;;5043177;28;20238;-72
2022/05/09 01:02:59;;;;;;;1.55;1.33;;;11.90;71.70;;;;;;5011080;28;20199;-72
2022/05/09 01:05:28;;;;;;;2.05;1.95;;;11.80;72.90;;;;;;5012623;28;20211;-73
2022/05/09 01:07:56;;;;;;;1.73;1.55;;;11.80;73.20;;;;;;5011055;28;20330;-73
2022/05/09 01:10:25;;;;;;;1.00;1.00;;;11.80;73.00;;;;;;5008446;28;20224;-72
2022/05/09 01:12:52;;;;;;;1.70;1.60;;;11.70;73.00;;;;;;5007730;28;20177;-74
2022/05/09 01:15:18;;;;;;;2.03;1.92;;;11.60;73.00;;;;;;5006508;28;20264;-73
2022/05/09 01:17:50;;;;;;;1.77;1.67;;;11.60;72.90;;;;;;5010705;28;20193;-73
2022/05/09 01:20:17;;;;;;;2.22;2.10;;;11.60;73.30;;;;;;5007192;28;20189;-73
2022/05/09 01:22:43;;;;;;;1.95;1.85;;;11.50;73.20;;;;;;5009568;28;20181;-73
2022/05/09 01:25:13;;;;;;;2.28;1.67;;;11.50;73.40;;;;;;5010607;28;20195;-73
2022/05/09 01:27:42;;;;;;;2.22;1.95;;;11.40;73.60;;;;;;5014612;28;20189;-73
2022/05/09 01:30:19;;;;;;;2.03;1.92;;;11.40;73.70;;;;;;5011781;28;20604;-72
2022/05/09 01:32:57;;;;;;;2.25;2.05;;;11.40;73.90;;;;;;5009239;28;20808;-73
2022/05/09 01:35:45;;;;;;;2.90;1.95;;;11.40;73.90;;;;;;5003192;28;20259;-73
2022/05/09 01:38:26;;;;;;;2.28;1.75;;;11.30;74.10;;;;;;5006249;28;20187;-73
2022/05/09 01:40:51;;;;;;;2.10;2.00;;;11.30;74.30;;;;;;5007703;28;20192;-73
2022/05/09 01:43:35;;;;;;;2.83;1.83;;;11.20;74.40;;;;;;5016647;28;20172;-73
2022/05/09 01:46:07;;;;;;;6.27;2.27;;;11.20;74.50;;;;;;5011120;28;20181;-73
2022/05/09 01:51:18;;;;;;;3.17;2.00;;;11.10;74.40;;;;;;5015963;28;20624;-72
2022/05/09 01:53:52;;;;;;;2.23;1.47;;;11.00;74.50;;;;;;5014825;28;20184;-71
2022/05/09 01:56:23;;;;;;;1.45;1.10;;;11.00;74.40;;;;;;5011174;28;20940;-72
2022/05/09 01:58:49;;;;;;;2.07;1.67;;;11.00;74.50;;;;;;5014731;28;20200;-73
2022/05/09 02:01:19;;;;;;;1.57;1.47;;;11.00;74.80;;;;;;5007603;28;20181;-72
2022/05/09 02:03:46;;;;;;;1.27;1.15;;;10.90;74.70;;;;;;5011454;28;20327;-72
2022/05/09 02:06:12;;;;;;;1.50;1.40;;;10.90;74.50;;;;;;5013784;28;20185;-72
2022/05/09 02:08:39;;;;;;;1.63;1.27;;;10.90;74.60;;;;;;5015179;28;20266;-72
2022/05/09 02:11:05;;;;;;;1.43;1.13;;;10.80;74.50;;;;;;5016615;28;20242;-72
2022/05/09 02:13:31;;;;;;;1.43;1.33;;;10.80;74.60;;;;;;5009830;28;20192;-72
2022/05/09 02:15:58;;;;;;;1.07;1.07;;;10.80;74.80;;;;;;5012868;28;20803;-72
2022/05/09 02:18:23;;;;;;;0.73;0.73;;;10.80;74.80;;;;;;5018325;28;20192;-72
2022/05/09 02:20:50;;;;;;;1.80;1.03;;;10.70;74.70;;;;;;5014075;28;20189;-72
2022/05/09 02:23:17;;;;;;;2.30;1.07;;;10.70;74.70;;;;;;5014365;28;20253;-72
2022/05/09 02:25:44;;;;;;;1.57;1.40;;;10.70;74.70;;;;;;5044663;28;20189;-71
2022/05/09 02:28:11;;;;;;;2.20;1.43;;;10.70;75.50;;;;;;5047724;28;20180;-73
2022/05/09 02:30:38;;;;;;;0.93;0.93;;;10.70;75.60;;;;;;5011344;28;20218;-72
2022/05/09 02:33:05;;;;;;;0.93;0.93;;;10.70;75.60;;;;;;5012610;28;20188;-72
2022/05/09 02:35:32;;;;;;;1.20;1.20;;;10.60;75.10;;;;;;5013849;28;20783;-72
2022/05/09 02:37:58;;;;;;;1.60;1.30;;;10.60;75.80;;;;;;5013752;28;20176;-72
2022/05/09 02:40:26;;;;;;;3.80;0.90;;;10.50;75.10;;;;;;5010786;28;20240;-72
2022/05/09 02:42:53;;;;;;;1.17;1.17;;;10.50;75.70;;;;;;5015443;28;20187;-72
2022/05/09 02:45:20;;;;;;;3.73;1.37;;;10.40;75.50;;;;;;5010988;28;20185;-72
2022/05/09 02:47:46;;;;;;;1.47;1.20;;;;;;;;;;5010964;28;20185;-72
2022/05/09 02:50:14;;;;;;;1.00;1.00;;;10.40;75.80;;;;;;5008772;28;20188;-72
2022/05/09 02:52:41;;;;;;;1.23;1.23;;;10.40;75.90;;;;;;5020106;28;20839;-71
2022/05/09 02:55:08;;;;;;;0.93;0.93;;;10.40;75.90;;;;;;5009750;28;20184;-72
2022/05/09 02:57:35;;;;;;;1.90;1.20;;;10.40;75.80;;;;;;5006370;28;20695;-71
2022/05/09 03:00:03;;;;;;;1.63;1.53;;;10.30;75.40;;;;;;5014439;28;20220;-73
2022/05/09 03:02:29;;;;;;;1.03;1.00;;;10.30;75.70;;;;;;5009437;28;20187;-72
2022/05/09 03:04:54;;;;;;;2.57;1.00;;;10.30;76.10;;;;;;5013878;28;20176;-72
2022/05/09 03:07:20;;;;;;;1.13;1.03;;;;;;;;;;5012548;28;20177;-72
2022/05/09 03:09:48;;;;;;;1.63;1.53;;;10.30;76.00;;;;;;5014511;28;20189;-71
2022/05/09 03:12:15;;;;;;;1.33;1.27;;;10.20;76.20;;;;;;5008614;28;20180;-72
2022/05/09 03:14:41;;;;;;;1.17;1.17;;;10.20;76.20;;;;;;5008295;28;20187;-72
2022/05/09 03:17:08;;;;;;;0.77;0.77;;;10.20;76.00;;;;;;5012623;28;20683;-72
2022/05/09 03:19:34;;;;;;;2.20;1.70;;;10.20;77.40;;;;;;5017905;28;20208;-72
2022/05/09 03:22:00;;;;;;;1.63;1.63;;;10.20;77.90;;;;;;5013197;28;20192;-72
2022/05/09 03:24:26;;;;;;;3.80;1.60;;;;;;;;;;5015102;28;20260;-71
2022/05/09 03:26:53;;;;;;;2.10;1.87;;;;;;;;;;5015242;28;20210;-72
2022/05/09 03:29:20;;;;;;;2.03;1.80;;;10.10;77.60;;;;;;5014667;28;20189;-72
2022/05/09 03:31:52;;;;;;;2.30;1.33;;;10.10;78.00;;;;;;5012941;28;20181;-72
2022/05/09 03:34:19;;;;;;;1.00;1.00;;;10.00;77.90;;;;;;5013692;28;20272;-71
2022/05/09 03:36:45;;;;;;;0.83;0.83;;;10.00;77.80;;;;;;5005721;28;20231;-72
2022/05/09 03:39:11;;;;;;;1.40;1.30;;;9.90;77.80;;;;;;5011935;28;20197;-72
2022/05/09 03:41:38;;;;;;;1.03;0.90;;;9.90;77.70;;;;;;5012505;28;20717;-73
2022/05/09 03:44:04;;;;;;;1.07;1.07;;;9.80;77.40;;;;;;5045257;28;20578;-73
2022/05/09 03:46:31;;;;;;;1.23;1.23;;;;;;;;;;5010993;28;20184;-73
2022/05/09 03:48:57;;;;;;;1.40;1.30;;;;;;;;;;5012357;28;20192;-73
2022/05/09 03:51:22;;;;;;;0.90;0.90;;;9.80;77.10;;;;;;5012774;28;20279;-73
2022/05/09 03:53:48;;;;;;;2.17;1.00;;;9.80;77.50;;;;;;5016801;28;20279;-72
2022/05/09 03:56:14;;;;;;;3.03;1.73;;;;;;;;;;5019349;28;20230;-73
2022/05/09 03:58:40;;;;;;;2.00;1.10;;;;;;;;;;5011297;28;20223;-72
2022/05/09 04:01:08;;;;;;;0.70;0.70;;;9.90;77.50;;;;;;5012267;28;20219;-73
2022/05/09 04:03:34;;;;;;;0.83;0.83;;;;;;;;;;5009309;28;20219;-72
2022/05/09 04:06:00;;;;;;;2.60;0.80;;;9.80;76.70;;;;;;5012313;28;20192;-73
2022/05/09 04:08:26;;;;;;;1.17;1.07;;;;;;;;;;5012907;28;20189;-73
2022/05/09 04:10:54;;;;;;;0.93;0.93;;;9.80;76.70;;;;;;5014761;28;20180;-73
2022/05/09 04:13:20;;;;;;;1.97;0.87;;;9.90;76.70;;;;;;5009457;28;20891;-72
2022/05/09 04:18:43;;;;;;;2.47;0.77;;;10.00;76.70;;;;;;5007197;28;20199;-72
2022/05/09 04:21:11;;;;;;;0.97;0.97;;;10.00;76.50;;;;;;5011930;28;20192;-72
2022/05/09 04:23:38;;;;;;;1.57;1.00;;;;;;;;;;5014307;28;20568;-72
2022/05/09 04:26:05;;;;;;;5.30;0.87;;;10.10;76.50;;;;;;5011593;28;20211;-72
2022/05/09 04:28:31;;;;;;;3.03;1.10;;;10.10;76.60;;;;;;5006161;28;20705;-72
2022/05/09 04:30:57;;;;;;;2.33;1.37;;;10.20;76.70;;;;;;5015526;28;20192;-72
2022/05/09 04:33:22;;;;;;;1.10;0.97;;;10.20;76.90;;;;;;5005605;28;20693;-72
2022/05/09 04:35:49;;;;;;;4.23;1.30;;;10.30;77.40;;;;;;5011884;28;20188;-72
2022/05/09 04:38:21;;;;;;;1.80;1.40;;;10.30;77.10;;;;;;5009788;28;20624;-72
2022/05/09 04:40:51;;;;;;;1.20;1.20;;;10.40;77.00;;;;;;5008721;28;20193;-72
2022/05/09 04:43:21;;;;;;;1.93;1.23;;;10.40;77.10;;;;;;5008199;28;20176;-72
2022/05/09 04:45:48;;;;;;;3.23;1.50;;;10.50;77.20;;;;;;5010778;28;20268;-72
2022/05/09 04:48:17;;;;;;;1.50;1.40;;;10.60;77.10;;;;;;4999734;28;20638;-72
2022/05/09 04:50:43;;;;;;;1.53;1.43;;;10.60;77.20;;;;;;5002753;28;20218;-73
2022/05/09 04:53:09;;;;;;;1.57;1.47;;;10.70;77.40;;;;;;5003437;28;20764;-72
2022/05/09 04:55:35;;;;;;;3.20;1.93;;;10.70;77.50;;;;;;5004804;28;20188;-74
2022/05/09 04:58:01;;;;;;;1.70;1.60;;;10.80;77.80;;;;;;5004846;28;20298;-73
2022/05/09 05:00:27;;;;;;;2.43;1.50;;;10.90;77.90;;;;;;5005731;28;20223;-72
2022/05/09 05:02:55;;;;;;;1.70;1.30;;;10.90;77.80;;;;;;5011432;28;20189;-73
2022/05/09 05:05:21;;;;;;;2.93;1.93;;;11.00;79.50;;;;;;5006881;28;20187;-71
2022/05/09 05:07:48;;;;;;;2.83;2.53;;;11.00;78.90;;;;;;5007014;28;20630;-73
2022/05/09 05:10:14;;;;;;;4.40;2.37;;;11.10;78.80;;;;;;5011144;28;20199;-74
2022/05/09 05:12:41;;;;;;;2.10;1.97;;;11.10;78.20;;;;;;5008992;28;20251;-71
2022/05/09 05:15:08;;;;;;;3.07;2.83;;;11.20;79.40;;;;;;5011447;28;20177;-71
2022/05/09 05:17:35;;;;;;;2.07;1.97;;;11.20;78.80;;;;;;5004215;28;20188;-71
2022/05/09 05:20:02;;;;;;;1.67;1.67;;;11.30;79.20;;;;;;5036499;28;20308;-70
2022/05/09 05:22:28;;;;;;;3.30;1.87;;;11.40;79.00;;;;;;5012436;28;20268;-75
2022/05/09 05:24:54;;;;;;;3.90;2.27;;;;;;;;;;5005499;28;20725;-72
2022/05/09 05:27:23;;;;;;;2.63;2.42;;;11.50;78.50;;;;;;5015912;28;20609;-72
2022/05/09 05:29:49;;;;;;;4.13;2.47;;;11.50;77.70;;;;;;5007294;28;20192;-69
2022/05/09 05:32:31;;;;;;;2.75;2.60;;;11.60;77.60;;;;;;5014139;28;20189;-69
2022/05/09 05:34:56;;;;;;;2.63;2.43;;;11.70;77.40;;;;;;5009023;28;20192;-71
2022/05/09 05:37:22;;;;;;;1.50;1.45;;;11.70;77.60;;;;;;5015545;28;20173;-73
2022/05/09 05:39:48;;;;;;;2.13;1.98;;;;;;;;;;5010786;28;21052;-70
2022/05/09 05:42:17;;;;;;;2.45;1.90;;;11.90;77.60;;;;;;5039112;28;20717;-70
2022/05/09 05:44:44;;;;;;;1.95;1.85;;;11.90;77.30;;;;;;5013129;28;20188;-70
2022/05/09 05:47:13;;;;;;;6.22;1.90;;;11.90;76.90;;;;;;5016383;28;20192;-70
2022/05/09 05:49:40;;;;;;;2.67;2.45;;;12.00;77.10;;;;;;5011324;28;20186;-71
2022/05/09 05:52:07;;;;;;;2.30;2.20;;;12.10;76.70;;;;;;5014617;28;20418;-73
2022/05/09 05:54:36;;;;;;;1.90;1.80;;;12.20;77.00;;;;;;5007489;28;20320;-73
2022/05/09 05:57:03;;;;;;;2.67;2.58;;;12.20;76.90;;;;;;5043441;28;20686;-74
2022/05/09 05:59:30;;;;;;;3.25;2.15;;;12.30;76.60;;;;;;5018677;28;20208;-73
2022/05/09 06:01:56;;;;;;;2.65;2.35;;;12.30;76.10;;;;;;5014449;28;20191;-73
2022/05/09 06:04:22;;;;;;;6.95;2.92;;;;;;;;;;5007991;28;20173;-73
2022/05/09 06:06:49;;;;;;;7.68;2.80;;;12.50;76.10;;;;;;5015342;28;20534;-73
2022/05/09 06:09:15;;;;;;;5.35;2.80;;;12.60;75.30;;;;;;5006276;28;20185;-73
2022/05/09 06:11:41;;;;;;;2.08;1.98;;;12.60;75.30;;;;;;5013288;28;20184;-73
2022/05/09 06:14:08;;;;;;;2.17;2.17;;;12.70;75.20;;;;;;5009747;28;20172;-74
2022/05/09 06:16:36;;;;;;;2.97;2.53;;;12.80;75.30;;;;;;5004496;28;20209;-73
2022/05/09 06:19:03;;;;;;;2.70;2.47;;;12.90;75.20;;;;;;5045873;28;20204;-72
2022/05/09 06:21:29;;;;;;;3.17;2.17;;;13.00;74.70;;;;;;4998561;28;20276;-73
2022/05/09 06:23:55;;;;;;;2.08;2.03;;;13.00;74.60;;;;;;5040663;28;20586;-73
2022/05/09 06:26:22;;;;;;;2.05;1.95;;;;;;;;;;5011318;28;20180;-74
2022/05/09 06:28:48;;;;;;;3.45;2.85;;;13.20;74.70;;;;;;5015473;28;20192;-74
2022/05/09 06:31:14;;;;;;;2.20;2.10;;;;;;;;;;5014068;28;20181;-74
2022/05/09 06:33:40;;;;;;;2.90;2.40;;;13.30;74.00;;;;;;5009850;28;20180;-74
2022/05/09 06:36:06;;;;;;;2.75;2.55;;;13.40;74.10;;;;;;5013614;28;20185;-73
2022/05/09 06:38:33;;;;;;;3.15;2.88;;;13.40;74.10;;;;;;5009825;28;20188;-73
2022/05/09 06:41:00;;;;;;;2.45;2.35;;;13.60;74.50;;;;;;5005090;28;20203;-73
2022/05/09 06:43:26;;;;;;;2.78;2.60;;;13.70;74.30;;;;;;5014541;28;20183;-74
2022/05/09 06:45:52;;;;;;;2.78;2.63;;;13.70;74.00;;;;;;5010232;28;20637;-73
2022/05/09 06:48:18;;;;;;;2.15;2.15;;;13.80;73.70;;;;;;5009213;28;20813;-73
2022/05/09 06:50:44;;;;;;;5.65;2.38;;;13.80;73.60;;;;;;5016983;28;20191;-74
2022/05/09 06:53:11;;;;;;;1.90;1.90;;;13.90;73.30;;;;;;5010706;28;20188;-73
2022/05/09 06:55:37;;;;;;;1.98;1.90;;;14.00;73.10;;;;;;5011030;28;20194;-74
2022/05/09 06:58:08;;;;;;;2.13;2.03;;;14.10;72.80;;;;;;5015651;28;20225;-73
2022/05/09 07:00:34;;;;;;;2.22;2.13;;;14.20;71.70;;;;;;5017424;28;20212;-73
2022/05/09 07:03:00;;;;;;;5.28;3.20;;;14.30;71.10;;;;;;5012631;28;20205;-73
2022/05/09 07:05:26;;;;;;;6.53;2.85;;;14.40;71.00;;;;;;5009157;28;20224;-73
2022/05/09 07:07:52;;;;;;;2.72;2.60;;;14.50;71.10;;;;;;5018916;28;20188;-73
2022/05/09 07:10:19;;;;;;;5.63;2.75;;;14.50;70.80;;;;;;5015567;28;20605;-74
2022/05/09 07:12:53;;;;;;;2.65;2.45;;;14.60;70.80;;;;;;5018227;28;20184;-74
2022/05/09 07:15:22;;;;;;;1.42;1.42;;;14.70;71.30;;;;;;5015104;28;20275;-73
2022/05/09 07:17:52;;;;;;;2.40;2.22;;;14.70;71.00;;;;;;5010093;28;20185;-74
2022/05/09 07:20:20;;;;;;;2.50;2.00;;;14.80;70.80;;;;;;5015539;28;20295;-73
2022/05/09 07:22:46;;;;;;;2.05;2.05;;;14.90;70.30;;;;;;5008013;28;20208;-73
2022/05/09 07:25:14;;;;;;;2.35;2.15;;;15.00;70.20;;;;;;5000488;28;20209;-73
2022/05/09 07:27:42;;;;;;;3.60;2.38;;;15.10;70.30;;;;;;5011346;28;20189;-74
2022/05/09 07:30:15;;;;;;;2.63;2.40;;;15.20;70.20;;;;;;5041994;28;20385;-74
2022/05/09 07:32:41;;;;;;;2.17;2.08;;;15.30;70.20;;;;;;5009471;28;20187;-73
2022/05/09 07:35:09;;;;;;;1.48;1.42;;;15.40;70.10;;;;;;5024162;28;20181;-74
2022/05/09 07:37:35;;;;;;;3.03;2.40;;;15.50;70.30;;;;;;5014208;28;20613;-73
2022/05/09 07:40:00;;;;;;;2.10;2.00;;;15.60;70.30;;;;;;5006471;28;20378;-73
2022/05/09 07:42:27;;;;;;;2.40;1.95;;;15.70;70.00;;;;;;5011815;28;20192;-73
2022/05/09 07:44:56;;;;;;;1.67;1.58;;;15.80;69.80;;;;;;5008995;28;20559;-74
2022/05/09 07:47:22;;;;;;;1.38;1.38;;;15.90;69.50;;;;;;5014649;28;20573;-73
2022/05/09 07:49:48;;;;;;;1.88;1.77;;;16.00;69.40;;;;;;5010907;28;20276;-73
2022/05/09 07:52:14;;;;;;;1.40;1.40;;;;;;;;;;5011509;28;20889;-73
2022/05/09 07:54:40;;;;;;;1.38;1.38;;;16.20;68.50;;;;;;5013166;28;20185;-73
2022/05/09 07:57:06;;;;;;;2.47;1.70;;;16.30;68.20;;;;;;5009608;28;20554;-74
2022/05/09 07:59:32;;;;;;;1.27;1.27;;;;;;;;;;5009167;28;20216;-74
2022/05/09 08:01:57;;;;;;;2.58;1.20;;;16.50;68.00;;;;;;5013110;28;20180;-74
2022/05/09 08:04:24;;;;;;;1.38;1.30;;;16.60;67.70;;;;;;5008219;28;20196;-74
2022/05/09 08:06:49;;;;;;;1.30;1.30;;;16.60;66.90;;;;;;5016774;28;21092;-73
2022/05/09 08:09:15;;;;;;;1.20;1.20;;;16.80;65.90;;;;;;5006235;28;20185;-73
2022/05/09 08:11:41;;;;;;;0.80;0.80;;;16.90;66.10;;;;;;5006512;28;20251;-74
2022/05/09 08:14:08;;;;;;;1.13;1.13;;;17.00;66.10;;;;;;5010650;28;20224;-74
2022/05/09 08:16:34;;;;;;;2.13;1.15;;;17.10;65.80;;;;;;5012375;28;20191;-74
2022/05/09 08:19:02;;;;;;;1.25;1.20;;;17.20;64.80;;;;;;5014471;28;20721;-73
2022/05/09 08:21:28;;;;;;;1.27;1.25;;;17.30;66.00;;;;;;5007313;28;20250;-73
2022/05/09 08:23:54;;;;;;;0.80;0.80;;;;;;;;;;5006210;28;20307;-74
2022/05/09 08:26:21;;;;;;;1.65;0.98;;;17.60;64.10;;;;;;5011678;28;20670;-73
2022/05/09 08:28:48;;;;;;;1.10;1.10;;;17.70;63.30;;;;;;5014153;28;20188;-73
2022/05/09 08:31:18;;;;;;;1.00;0.90;;;17.80;63.70;;;;;;5010090;28;20621;-75
2022/05/09 08:33:46;;;;;;;1.58;0.95;;;17.90;62.70;;;;;;5008760;28;20192;-72
2022/05/09 08:36:12;;;;;;;0.98;0.98;;;17.90;63.60;;;;;;5049586;28;20690;-73
2022/05/09 08:38:38;;;;;;;1.02;0.95;;;18.10;62.80;;;;;;5013086;28;20630;-73
2022/05/09 08:41:18;;;;;;;1.65;1.00;;;18.20;62.80;;;;;;5013772;28;20271;-73
2022/05/09 08:44:21;;;;;;;0.80;0.80;;;18.30;62.00;;;;;;5011628;28;20191;-74
2022/05/09 08:47:05;;;;;;;0.80;0.80;;;18.40;62.60;;;;;;5015726;28;20211;-73
2022/05/09 08:49:43;;;;;;;3.25;0.90;;;18.60;62.40;;;;;;5010990;28;20180;-74
2022/05/09 08:52:24;;;;;;;0.95;0.88;;;18.70;60.70;;;;;;5013127;28;20193;-74
2022/05/09 08:54:52;;;;;;;0.63;0.63;;;18.80;60.50;;;;;;5010177;28;21073;-73
2022/05/09 08:57:23;;;;;;;2.30;0.90;;;18.90;61.10;;;;;;5008966;28;20209;-74
2022/05/09 08:59:57;;;;;;;0.88;0.75;;;19.00;61.80;;;;;;5008530;28;20283;-73
2022/05/09 09:02:41;;;;;;;0.82;0.82;;;19.10;61.40;;;;;;5017558;28;20184;-74
2022/05/09 09:05:11;;;;;;;0.90;0.90;;;19.30;60.70;;;;;;5011950;28;20230;-73
2022/05/09 09:08:04;;;;;;;0.90;0.90;;;19.40;59.40;;;;;;5016908;28;20185;-73
2022/05/09 09:10:58;;;;;;;0.73;0.73;;;19.50;57.50;;;;;;5019954;28;20173;-73
2022/05/09 09:14:00;;;;;;;0.90;0.90;;;19.60;57.00;;;;;;5014158;28;20181;-74
2022/05/09 09:16:41;;;;;;;0.47;0.47;;;19.70;58.80;;;;;;5016913;28;20184;-73
2022/05/09 09:19:38;;;;;;;2.45;0.70;;;19.90;57.60;;;;;;5013703;28;20204;-73
2022/05/09 09:22:23;;;;;;;2.78;0.60;;;20.00;57.90;;;;;;5013429;28;20185;-74
2022/05/09 09:25:33;;;;;;;0.63;0.63;;;20.20;57.20;;;;;;5022094;28;20188;-73
2022/05/09 09:28:41;;;;;;;1.10;0.47;;;20.40;55.40;;;;;;5013663;28;20197;-73
2022/05/09 09:31:10;;;;;;;0.68;0.68;;;20.60;52.80;;;;;;4976296;28;20361;-73
2022/05/09 09:33:42;;;;;;;0.52;0.45;;;20.70;52.20;;;;;;4974487;28;20197;-74
2022/05/09 09:36:13;;;;;;;1.10;0.70;;;21.00;51.70;;;;;;4976427;28;20221;-73
2022/05/09 09:39:08;;;;;;;0.60;0.60;;;21.20;51.60;;;;;;4977800;28;20194;-73
2022/05/09 09:41:36;;;;;;;0.60;0.60;;;21.40;51.90;;;;;;4887539;29;20281;-73
2022/05/09 09:44:20;;;;;;;2.95;0.80;;;21.60;49.90;;;;;;4888031;29;20197;-74
2022/05/09 09:47:09;;;;;;;0.63;0.63;;;21.90;49.70;;;;;;4887444;29;20319;-74
2022/05/09 09:49:42;;;;;;;1.05;0.80;;;22.30;52.60;;;;;;4885028;29;20195;-74
2022/05/09 09:52:31;;;;;;;0.50;0.50;;;22.70;49.40;;;;;;4885718;29;20201;-74
2022/05/09 09:55:05;;;;;;;0.75;0.63;;;23.30;49.30;;;;;;4887014;29;20699;-73
2022/05/09 09:57:36;;;;;;;0.50;0.50;;;23.80;47.90;;;;;;4887232;29;20200;-73
2022/05/09 10:00:27;;;;;;;0.40;0.40;;;24.30;47.10;;;;;;4887992;29;20238;-72
2022/05/09 10:02:54;;;;;;;0.70;0.70;;;25.00;45.50;;;;;;4888149;29;20617;-73
2022/05/09 10:05:32;;;;;;;0.70;0.70;;;25.50;45.80;;;;;;4887647;29;20212;-74
2022/05/09 10:07:58;;;;;;;0.40;0.40;;;25.80;45.40;;;;;;4917338;29;20202;-73
2022/05/09 10:10:26;;;;;;;1.27;0.57;;;26.10;44.80;;;;;;4928658;29;20196;-74
2022/05/09 10:12:57;;;;;;;0.45;0.45;;;26.50;44.80;;;;;;4929209;28;20263;-73
2022/05/09 10:15:30;;;;;;;0.57;0.57;;;27.00;42.70;;;;;;4931088;28;20191;-74
2022/05/09 10:17:58;;;;;;;3.40;0.57;;;27.70;41.60;;;;;;4953941;28;20216;-73
2022/05/09 10:20:29;;;;;;;1.40;0.60;;;28.20;41.50;;;;;;5018825;28;20665;-72
2022/05/09 10:26:13;;;;;;;0.40;0.40;;;29.50;41.70;;;;;;5008909;28;20200;-73
2022/05/09 10:28:45;;;;;;;0.60;0.60;;;29.60;40.40;;;;;;5012509;28;20550;-73
2022/05/09 10:31:26;;;;;;;3.53;0.68;;;29.90;39.80;;;;;;5014416;28;20575;-73
2022/05/09 10:34:00;;;;;;;0.52;0.52;;;30.40;39.90;;;;;;5011164;28;20199;-73
2022/05/09 10:36:46;;;;;;;2.05;0.50;;;31.00;39.50;;;;;;5004621;28;20177;-73
2022/05/09 10:39:18;;;;;;;1.05;0.47;;;31.10;38.60;;;;;;5018488;28;20209;-73
2022/05/09 10:41:49;;;;;;;0.50;0.50;;;31.30;39.70;;;;;;5008676;28;20713;-73
2022/05/09 10:44:39;;;;;;;0.50;0.50;;;31.60;38.70;;;;;;5011824;28;20217;-74
2022/05/09 10:47:15;;;;;;;2.83;0.50;;;32.00;38.20;;;;;;5011980;28;20248;-73
2022/05/09 10:49:41;;;;;;;0.40;0.40;;;32.60;37.00;;;;;;5005585;28;20180;-73
2022/05/09 10:52:31;;;;;;;0.50;0.50;;;32.90;36.60;;;;;;5012961;28;20242;-73
2022/05/09 10:55:10;;;;;;;0.50;0.50;;;33.20;37.50;;;;;;5010439;28;20223;-73
2022/05/09 10:57:50;;;;;;;0.52;0.52;;;33.40;37.30;;;;;;5007369;28;20212;-73
2022/05/09 11:00:21;;;;;;;0.40;0.40;;;33.60;36.50;;;;;;5010237;28;20244;-73
2022/05/09 11:02:57;;;;;;;0.47;0.47;;;34.00;35.70;;;;;;5007487;28;20209;-73
2022/05/09 11:05:28;;;;;;;0.68;0.43;;;34.10;35.20;;;;;;5014871;28;20188;-73
2022/05/09 11:08:25;;;;;;;2.60;0.52;;;34.10;34.30;;;;;;5009025;28;20238;-73
2022/05/09 11:11:07;;;;;;;0.40;0.40;;;34.30;36.80;;;;;;5016091;28;20180;-74
2022/05/09 11:14:03;;;;;;;0.50;0.50;;;34.20;35.30;;;;;;5008570;28;20181;-73
2022/05/09 11:16:44;;;;;;;3.45;0.38;;;34.20;35.10;;;;;;5005663;28;20200;-74
2022/05/09 11:19:29;;;;;;;1.38;0.40;;;34.40;34.50;;;;;;5011207;28;20792;-72
2022/05/09 11:22:03;;;;;;;0.30;0.30;;;34.70;34.80;;;;;;5015157;28;20291;-74
2022/05/09 11:24:48;;;;;;;1.30;0.43;;;35.00;35.50;;;;;;5011068;28;20287;-74
2022/05/09 11:27:49;;;;;;;0.30;0.30;;;35.10;35.30;;;;;;5019150;28;20172;-74
2022/05/09 11:30:31;;;;;;;2.58;0.40;;;35.20;34.40;;;;;;4960943;28;20356;-74
2022/05/09 11:33:21;;;;;;;0.40;0.40;;;35.40;34.80;;;;;;4943817;28;20189;-74
2022/05/09 11:35:53;;;;;;;0.50;0.47;;;35.70;34.50;;;;;;4960167;28;20646;-73
2022/05/09 11:38:39;;;;;;;0.43;0.43;;;36.10;34.70;;;;;;4958506;28;20194;-73
2022/05/09 11:41:30;;;;;;;0.50;0.50;;;36.30;34.30;;;;;;4864585;29;20209;-73
2022/05/09 11:44:12;;;;;;;0.52;0.52;;;36.60;33.10;;;;;;4864448;29;20201;-74
2022/05/09 11:46:57;;;;;;;0.47;0.47;;;36.90;34.10;;;;;;4866228;29;20837;-74
2022/05/09 11:49:23;;;;;;;2.60;0.45;;;;;;;;;;4864864;29;20208;-74
2022/05/09 11:51:56;;;;;;;0.50;0.40;;;37.60;32.50;;;;;;4866123;29;20209;-74
2022/05/09 11:54:35;;;;;;;1.55;0.40;;;37.80;33.60;;;;;;4867884;29;20193;-74
2022/05/09 11:57:13;;;;;;;0.35;0.32;;;37.90;33.90;;;;;;4866540;29;20189;-74
2022/05/09 11:59:50;;;;;;;0.73;0.30;;;37.90;34.30;;;;;;4867177;29;20213;-74
2022/05/09 12:02:36;;;;;;;0.82;0.30;;;37.80;32.40;;;;;;4865691;29;20193;-74
2022/05/09 12:05:31;;;;;;;0.30;0.30;;;37.80;31.50;;;;;;4850720;29;20723;-74
2022/05/09 12:08:04;;;;;;;0.40;0.40;;;37.90;32.70;;;;;;4899057;29;20205;-74
2022/05/09 12:10:32;;;;;;;2.15;0.50;;;38.20;32.30;;;;;;4922517;29;20215;-74
2022/05/09 12:13:04;;;;;;;0.30;0.30;;;38.30;32.40;;;;;;4923521;29;20690;-74
2022/05/09 12:15:30;;;;;;;0.30;0.30;;;;;;;;;;4918261;29;20194;-74
2022/05/09 12:17:58;;;;;;;0.20;0.20;;;38.10;30.90;;;;;;4954033;28;20208;-74
2022/05/09 12:20:26;;;;;;;1.63;0.40;;;;;;;;;;5009828;28;20912;-74
2022/05/09 12:22:54;;;;;;;0.38;0.38;;;38.30;31.10;;;;;;5011324;28;20191;-74
2022/05/09 12:25:36;;;;;;;1.10;0.30;;;38.40;33.80;;;;;;5013675;28;20582;-75
2022/05/09 12:28:19;;;;;;;0.20;0.20;;;38.50;32.50;;;;;;5010017;28;20341;-74
2022/05/09 12:30:58;;;;;;;0.40;0.40;;;38.00;29.10;;;;;;5008132;28;20302;-74
2022/05/09 12:33:50;;;;;;;1.63;0.30;;;37.10;30.60;;;;;;5007413;28;20191;-74
2022/05/09 12:36:31;;;;;;;0.20;0.20;;;37.00;30.60;;;;;;5007265;28;20565;-74
2022/05/09 12:39:16;;;;;;;0.30;0.30;;;37.20;31.20;;;;;;5010379;28;20194;-73
2022/05/09 12:41:51;;;;;;;0.30;0.30;;;37.50;31.70;;;;;;5011654;28;20289;-73
2022/05/09 12:44:29;;;;;;;0.50;0.30;;;37.70;31.90;;;;;;5012806;28;20207;-73
2022/05/09 12:47:20;;;;;;;1.65;0.20;;;37.80;32.20;;;;;;5007759;28;20610;-74
2022/05/09 12:50:03;;;;;;;0.30;0.30;;;38.20;31.30;;;;;;5013263;28;20232;-74
2022/05/09 12:52:34;;;;;;;0.35;0.28;;;37.60;32.20;;;;;;5010173;28;20195;-74
2022/05/09 12:57:45;;;;;;;0.30;0.30;;;37.70;31.90;;;;;;5012787;28;20735;-74
2022/05/09 13:00:33;;;;;;;0.60;0.40;;;37.90;32.10;;;;;;5014877;28;20576;-73
2022/05/09 13:03:07;;;;;;;0.40;0.40;;;38.00;32.00;;;;;;5011051;28;20767;-74
2022/05/09 13:05:39;;;;;;;0.40;0.40;;;38.50;31.70;;;;;;5011234;28;20186;-74
2022/05/09 13:08:08;;;;;;;2.28;0.43;;;38.60;32.50;;;;;;5010358;28;20712;-74
2022/05/09 13:10:49;;;;;;;0.45;0.22;;;38.40;31.70;;;;;;5010969;28;20615;-74
2022/05/09 13:13:31;;;;;;;0.30;0.30;;;38.40;31.40;;;;;;5011438;28;20216;-74
2022/05/09 13:15:58;;;;;;;0.95;0.32;;;38.30;31.90;;;;;;5010645;28;20258;-74
2022/05/09 13:18:27;;;;;;;0.40;0.40;;;38.10;31.80;;;;;;5009831;28;20581;-73
2022/05/09 13:21:04;;;;;;;1.58;0.38;;;37.90;31.70;;;;;;5012479;28;20177;-75
2022/05/09 13:23:37;;;;;;;0.20;0.20;;;37.70;32.30;;;;;;5011280;28;20180;-75
2022/05/09 13:26:09;;;;;;;0.20;0.20;;;37.60;32.40;;;;;;5009920;28;20567;-75
2022/05/09 13:28:44;;;;;;;2.33;0.47;;;37.60;32.10;;;;;;5010390;28;20180;-73